SWA3507 KMSY-KMCO
Flight info
| Callsign | SWA3507 |
|---|---|
| Flight time | 1h 17m |
| Altitude | 41000 |
| Route | REDFN Y280 CHRGE PRICY5 |
| Aircraft | B738/M-SADE2E3GIJ4RWZ/LB1D1 |
Departure
| Time | 2026-04-23 02:12 |
|---|---|
| Airport | Louis Armstrong New Orleans International Airport (KMSY) |
Arrival
| Time | 2026-04-23 03:29 |
|---|---|
| Airport | Orlando International Airport (KMCO) |
| Time | Latitude | Longitude | Altitude | Speed | Heading |
|---|---|---|---|---|---|
| 2026-04-23 01:49 | 29.98683 | -90.25393 | 14 ft | 0 kts | 119° |
| 2026-04-23 02:06 | 29.98691 | -90.25408 | 15 ft | 4 kts | 122° |
| 2026-04-23 02:07 | 29.98703 | -90.25434 | 14 ft | 4 kts | 92° |
| 2026-04-23 02:07 | 29.98702 | -90.25445 | 15 ft | 0 kts | 36° |
| 2026-04-23 02:09 | 29.98710 | -90.25439 | 16 ft | 4 kts | 36° |
| 2026-04-23 02:09 | 29.98767 | -90.25391 | 15 ft | 17 kts | 34° |
| 2026-04-23 02:09 | 29.98863 | -90.25381 | 12 ft | 18 kts | 306° |
| 2026-04-23 02:09 | 29.98903 | -90.25546 | 16 ft | 27 kts | 285° |
| 2026-04-23 02:10 | 29.98960 | -90.25775 | 18 ft | 31 kts | 287° |
| 2026-04-23 02:10 | 29.99020 | -90.26017 | 14 ft | 31 kts | 288° |
| 2026-04-23 02:10 | 29.99074 | -90.26248 | 11 ft | 29 kts | 285° |
| 2026-04-23 02:10 | 29.99126 | -90.26464 | 13 ft | 27 kts | 286° |
| 2026-04-23 02:11 | 29.99174 | -90.26666 | 10 ft | 25 kts | 284° |
| 2026-04-23 02:11 | 29.99217 | -90.26854 | 12 ft | 24 kts | 285° |
| 2026-04-23 02:11 | 29.99267 | -90.27046 | 13 ft | 23 kts | 287° |
| 2026-04-23 02:11 | 29.99359 | -90.27122 | 12 ft | 19 kts | 5° |
| 2026-04-23 02:12 | 29.99348 | -90.26838 | 13 ft | 73 kts | 107° |
| 2026-04-23 02:12 | 29.99146 | -90.26016 | 14 ft | 138 kts | 105° |
| 2026-04-23 02:12 | 29.98860 | -90.24804 | 386 ft | 156 kts | 105° |
| 2026-04-23 02:12 | 29.98608 | -90.23617 | 1267 ft | 154 kts | 103° |
| 2026-04-23 02:13 | 29.98150 | -90.22416 | 1520 ft | 180 kts | 130° |
| 2026-04-23 02:13 | 29.97331 | -90.21331 | 2188 ft | 183 kts | 130° |
| 2026-04-23 02:13 | 29.96496 | -90.20184 | 2984 ft | 190 kts | 130° |
| 2026-04-23 02:13 | 29.95621 | -90.18998 | 3602 ft | 198 kts | 131° |
| 2026-04-23 02:14 | 29.94700 | -90.17760 | 4139 ft | 210 kts | 131° |
| 2026-04-23 02:14 | 29.93746 | -90.16427 | 4696 ft | 218 kts | 128° |
| 2026-04-23 02:14 | 29.92772 | -90.15022 | 5192 ft | 232 kts | 130° |
| 2026-04-23 02:14 | 29.91681 | -90.13543 | 5542 ft | 251 kts | 131° |
| 2026-04-23 02:15 | 29.89210 | -90.10140 | 6125 ft | 301 kts | 130° |
| 2026-04-23 02:15 | 29.87897 | -90.08311 | 7123 ft | 297 kts | 130° |
| 2026-04-23 02:15 | 29.86580 | -90.06475 | 8153 ft | 299 kts | 130° |
| 2026-04-23 02:16 | 29.85255 | -90.04628 | 9081 ft | 300 kts | 130° |
| 2026-04-23 02:16 | 29.83883 | -90.02768 | 9835 ft | 305 kts | 130° |
| 2026-04-23 02:16 | 29.82543 | -90.00886 | 10767 ft | 308 kts | 130° |
| 2026-04-23 02:16 | 29.81151 | -89.98924 | 11203 ft | 326 kts | 130° |
| 2026-04-23 02:17 | 29.79657 | -89.96814 | 11399 ft | 351 kts | 130° |
| 2026-04-23 02:17 | 29.78078 | -89.94586 | 11786 ft | 367 kts | 130° |
| 2026-04-23 02:17 | 29.76464 | -89.92310 | 12362 ft | 375 kts | 129° |
| 2026-04-23 02:17 | 29.74800 | -89.89965 | 13065 ft | 380 kts | 129° |
| 2026-04-23 02:18 | 29.73119 | -89.87599 | 13791 ft | 384 kts | 129° |
| 2026-04-23 02:18 | 29.71419 | -89.85209 | 14521 ft | 387 kts | 129° |
| 2026-04-23 02:18 | 29.69697 | -89.82792 | 15172 ft | 393 kts | 129° |
| 2026-04-23 02:18 | 29.67956 | -89.80350 | 15835 ft | 397 kts | 130° |
| 2026-04-23 02:19 | 29.66192 | -89.77879 | 16481 ft | 402 kts | 130° |
| 2026-04-23 02:19 | 29.64408 | -89.75381 | 17119 ft | 406 kts | 130° |
| 2026-04-23 02:19 | 29.62609 | -89.72863 | 17726 ft | 410 kts | 130° |
| 2026-04-23 02:19 | 29.60783 | -89.70310 | 18301 ft | 414 kts | 130° |
| 2026-04-23 02:20 | 29.58968 | -89.67777 | 18883 ft | 418 kts | 130° |
| 2026-04-23 02:20 | 29.57112 | -89.65185 | 19477 ft | 421 kts | 130° |
| 2026-04-23 02:20 | 29.55241 | -89.62572 | 20053 ft | 425 kts | 130° |
| 2026-04-23 02:20 | 29.53353 | -89.59937 | 20607 ft | 428 kts | 130° |
| 2026-04-23 02:21 | 29.51449 | -89.57282 | 21115 ft | 432 kts | 130° |
| 2026-04-23 02:21 | 29.49531 | -89.54610 | 21660 ft | 435 kts | 130° |
| 2026-04-23 02:21 | 29.47602 | -89.51923 | 22150 ft | 438 kts | 130° |
| 2026-04-23 02:21 | 29.45650 | -89.49206 | 22609 ft | 442 kts | 130° |
| 2026-04-23 02:22 | 29.43686 | -89.46474 | 23085 ft | 445 kts | 130° |
| 2026-04-23 02:22 | 29.41710 | -89.43731 | 23549 ft | 448 kts | 130° |
| 2026-04-23 02:22 | 29.39712 | -89.40960 | 23996 ft | 451 kts | 130° |
| 2026-04-23 02:22 | 29.37706 | -89.38177 | 24382 ft | 455 kts | 130° |
| 2026-04-23 02:23 | 29.35683 | -89.35372 | 24761 ft | 458 kts | 130° |
| 2026-04-23 02:23 | 29.33666 | -89.32575 | 25158 ft | 461 kts | 131° |
| 2026-04-23 02:23 | 29.31608 | -89.29724 | 25533 ft | 465 kts | 131° |
| 2026-04-23 02:23 | 29.29539 | -89.26861 | 25882 ft | 468 kts | 131° |
| 2026-04-23 02:24 | 29.27451 | -89.23973 | 26231 ft | 472 kts | 131° |
| 2026-04-23 02:24 | 29.25350 | -89.21071 | 26584 ft | 475 kts | 131° |
| 2026-04-23 02:24 | 29.23237 | -89.18153 | 26942 ft | 477 kts | 131° |
| 2026-04-23 02:24 | 29.21109 | -89.15218 | 27272 ft | 480 kts | 131° |
| 2026-04-23 02:25 | 29.18965 | -89.12263 | 27587 ft | 484 kts | 132° |
| 2026-04-23 02:25 | 29.16813 | -89.09297 | 27888 ft | 486 kts | 132° |
| 2026-04-23 02:25 | 29.14642 | -89.06307 | 28218 ft | 489 kts | 132° |
| 2026-04-23 02:25 | 29.12486 | -89.03341 | 28508 ft | 491 kts | 132° |
| 2026-04-23 02:26 | 29.10292 | -89.00325 | 28810 ft | 494 kts | 132° |
| 2026-04-23 02:26 | 29.08093 | -88.97304 | 29071 ft | 497 kts | 132° |
| 2026-04-23 02:26 | 29.05875 | -88.94258 | 29352 ft | 499 kts | 132° |
| 2026-04-23 02:26 | 29.03646 | -88.91199 | 29648 ft | 501 kts | 132° |
| 2026-04-23 02:27 | 29.01407 | -88.88129 | 29945 ft | 503 kts | 133° |
| 2026-04-23 02:27 | 28.99168 | -88.85061 | 30246 ft | 504 kts | 133° |
| 2026-04-23 02:27 | 28.96921 | -88.81983 | 30643 ft | 503 kts | 133° |
| 2026-04-23 02:27 | 28.94682 | -88.78918 | 31066 ft | 501 kts | 133° |
| 2026-04-23 02:28 | 28.92453 | -88.75872 | 31445 ft | 500 kts | 133° |
| 2026-04-23 02:28 | 28.90249 | -88.72794 | 31746 ft | 502 kts | 129° |
| 2026-04-23 02:28 | 28.88371 | -88.69420 | 32047 ft | 505 kts | 120° |
| 2026-04-23 02:28 | 28.86923 | -88.65757 | 32419 ft | 507 kts | 110° |
| 2026-04-23 02:29 | 28.85865 | -88.61969 | 32760 ft | 506 kts | 108° |
| 2026-04-23 02:29 | 28.84851 | -88.58123 | 33060 ft | 506 kts | 108° |
| 2026-04-23 02:29 | 28.83837 | -88.54260 | 33314 ft | 507 kts | 108° |
| 2026-04-23 02:29 | 28.82809 | -88.50398 | 33582 ft | 508 kts | 108° |
| 2026-04-23 02:30 | 28.81765 | -88.46554 | 33920 ft | 506 kts | 108° |
| 2026-04-23 02:30 | 28.80713 | -88.42730 | 34237 ft | 506 kts | 109° |
| 2026-04-23 02:30 | 28.79662 | -88.38945 | 34506 ft | 506 kts | 109° |
| 2026-04-23 02:30 | 28.78596 | -88.35125 | 34746 ft | 507 kts | 109° |
| 2026-04-23 02:31 | 28.77524 | -88.31288 | 35018 ft | 506 kts | 109° |
| 2026-04-23 02:31 | 28.76457 | -88.27463 | 35362 ft | 504 kts | 109° |
| 2026-04-23 02:31 | 28.75394 | -88.23656 | 35656 ft | 503 kts | 109° |
| 2026-04-23 02:31 | 28.74332 | -88.19851 | 35894 ft | 504 kts | 109° |
| 2026-04-23 02:32 | 28.73269 | -88.16047 | 36119 ft | 504 kts | 109° |
| 2026-04-23 02:32 | 28.72207 | -88.12252 | 36332 ft | 505 kts | 109° |
| 2026-04-23 02:32 | 28.71138 | -88.08438 | 36524 ft | 505 kts | 109° |
| 2026-04-23 02:32 | 28.70066 | -88.04622 | 36754 ft | 505 kts | 109° |
| 2026-04-23 02:33 | 28.68993 | -88.00818 | 37065 ft | 503 kts | 109° |
| 2026-04-23 02:33 | 28.67926 | -87.97039 | 37438 ft | 498 kts | 109° |
| 2026-04-23 02:33 | 28.66867 | -87.93290 | 37704 ft | 497 kts | 109° |
| 2026-04-23 02:33 | 28.65808 | -87.89545 | 37931 ft | 496 kts | 109° |
| 2026-04-23 02:34 | 28.64762 | -87.85851 | 38134 ft | 496 kts | 109° |
| 2026-04-23 02:34 | 28.63704 | -87.82121 | 38336 ft | 495 kts | 109° |
| 2026-04-23 02:34 | 28.62646 | -87.78394 | 38544 ft | 495 kts | 109° |
| 2026-04-23 02:34 | 28.61588 | -87.74669 | 38712 ft | 495 kts | 109° |
| 2026-04-23 02:35 | 28.60525 | -87.70934 | 38853 ft | 496 kts | 109° |
| 2026-04-23 02:35 | 28.59464 | -87.67208 | 39003 ft | 495 kts | 109° |
| 2026-04-23 02:35 | 28.58400 | -87.63477 | 39159 ft | 496 kts | 109° |
| 2026-04-23 02:36 | 28.56256 | -87.55969 | 39169 ft | 499 kts | 109° |
| 2026-04-23 02:36 | 28.54103 | -87.48449 | 39167 ft | 499 kts | 109° |
| 2026-04-23 02:37 | 28.51964 | -87.40990 | 39170 ft | 499 kts | 109° |
| 2026-04-23 02:37 | 28.49806 | -87.33485 | 39166 ft | 499 kts | 109° |
| 2026-04-23 02:38 | 28.47641 | -87.25977 | 39168 ft | 500 kts | 109° |
| 2026-04-23 02:38 | 28.45469 | -87.18457 | 39166 ft | 500 kts | 109° |
| 2026-04-23 02:39 | 28.43296 | -87.10949 | 39166 ft | 501 kts | 109° |
| 2026-04-23 02:39 | 28.41111 | -87.03421 | 39167 ft | 501 kts | 109° |
| 2026-04-23 02:40 | 28.38930 | -86.95923 | 39166 ft | 502 kts | 109° |
| 2026-04-23 02:40 | 28.36735 | -86.88387 | 39170 ft | 502 kts | 109° |
| 2026-04-23 02:41 | 28.34905 | -86.82123 | 39166 ft | 503 kts | 109° |
| 2026-04-23 02:41 | 28.32695 | -86.74577 | 39167 ft | 504 kts | 110° |
| 2026-04-23 02:42 | 28.30124 | -86.65804 | 39168 ft | 504 kts | 110° |
| 2026-04-23 02:42 | 28.28272 | -86.59466 | 39163 ft | 505 kts | 110° |
| 2026-04-23 02:43 | 28.26070 | -86.51937 | 39168 ft | 506 kts | 110° |
| 2026-04-23 02:43 | 28.23848 | -86.44363 | 39164 ft | 507 kts | 110° |
| 2026-04-23 02:44 | 28.21614 | -86.36768 | 39170 ft | 508 kts | 110° |
| 2026-04-23 02:44 | 28.19375 | -86.29171 | 39167 ft | 509 kts | 110° |
| 2026-04-23 02:45 | 28.17123 | -86.21551 | 39165 ft | 510 kts | 110° |
| 2026-04-23 02:45 | 28.14860 | -86.13910 | 39169 ft | 511 kts | 110° |
| 2026-04-23 02:46 | 28.12595 | -86.06274 | 39164 ft | 511 kts | 111° |
| 2026-04-23 02:46 | 28.10334 | -85.98671 | 39177 ft | 512 kts | 111° |
| 2026-04-23 02:47 | 28.08054 | -85.91020 | 39174 ft | 512 kts | 111° |
| 2026-04-23 02:47 | 28.05771 | -85.83378 | 39175 ft | 512 kts | 111° |
| 2026-04-23 02:48 | 28.03480 | -85.75732 | 39174 ft | 512 kts | 111° |
| 2026-04-23 02:48 | 28.01208 | -85.68159 | 39178 ft | 511 kts | 111° |
| 2026-04-23 02:49 | 27.98914 | -85.60536 | 39169 ft | 511 kts | 111° |
| 2026-04-23 02:49 | 27.96617 | -85.52922 | 39170 ft | 511 kts | 111° |
| 2026-04-23 02:50 | 27.94319 | -85.45319 | 39177 ft | 511 kts | 111° |
| 2026-04-23 02:50 | 27.92016 | -85.37712 | 39174 ft | 511 kts | 111° |
| 2026-04-23 02:51 | 27.89717 | -85.30140 | 39174 ft | 511 kts | 111° |
| 2026-04-23 02:51 | 27.87665 | -85.22429 | 39174 ft | 514 kts | 103° |
| 2026-04-23 02:52 | 27.86389 | -85.14458 | 39172 ft | 516 kts | 101° |
| 2026-04-23 02:52 | 27.85142 | -85.06462 | 39181 ft | 517 kts | 102° |
| 2026-04-23 02:53 | 27.83804 | -84.98466 | 39178 ft | 518 kts | 102° |
| 2026-04-23 02:53 | 27.82436 | -84.90453 | 39186 ft | 519 kts | 102° |
| 2026-04-23 02:54 | 27.81155 | -84.82412 | 39173 ft | 521 kts | 95° |
| 2026-04-23 02:54 | 27.81361 | -84.74290 | 39183 ft | 521 kts | 85° |
| 2026-04-23 02:55 | 27.81941 | -84.66131 | 39190 ft | 521 kts | 85° |
| 2026-04-23 02:55 | 27.82432 | -84.57962 | 39177 ft | 521 kts | 86° |
| 2026-04-23 02:56 | 27.82830 | -84.49773 | 39186 ft | 521 kts | 86° |
| 2026-04-23 02:56 | 27.83198 | -84.41643 | 39181 ft | 520 kts | 86° |
| 2026-04-23 02:57 | 27.83568 | -84.33486 | 39186 ft | 520 kts | 86° |
| 2026-04-23 02:57 | 27.83940 | -84.25325 | 39183 ft | 519 kts | 86° |
| 2026-04-23 02:58 | 27.84306 | -84.17173 | 39182 ft | 518 kts | 86° |
| 2026-04-23 02:58 | 27.84668 | -84.09033 | 38912 ft | 522 kts | 86° |
| 2026-04-23 02:58 | 27.84849 | -84.04923 | 38420 ft | 520 kts | 86° |
| 2026-04-23 02:59 | 27.85024 | -84.00907 | 37833 ft | 518 kts | 86° |
| 2026-04-23 02:59 | 27.85201 | -83.96834 | 37226 ft | 518 kts | 86° |
| 2026-04-23 02:59 | 27.85376 | -83.92768 | 36620 ft | 517 kts | 86° |
| 2026-04-23 02:59 | 27.85550 | -83.88705 | 35997 ft | 517 kts | 86° |
| 2026-04-23 03:00 | 27.85720 | -83.84638 | 35284 ft | 519 kts | 86° |
| 2026-04-23 03:00 | 27.85891 | -83.80538 | 34589 ft | 521 kts | 87° |
| 2026-04-23 03:00 | 27.86057 | -83.76495 | 33879 ft | 522 kts | 87° |
| 2026-04-23 03:00 | 27.86226 | -83.72391 | 33152 ft | 523 kts | 87° |
| 2026-04-23 03:01 | 27.86394 | -83.68280 | 32396 ft | 522 kts | 87° |
| 2026-04-23 03:01 | 27.86560 | -83.64169 | 31605 ft | 524 kts | 86° |
| 2026-04-23 03:01 | 27.86728 | -83.60040 | 30880 ft | 526 kts | 86° |
| 2026-04-23 03:01 | 27.86892 | -83.55925 | 30339 ft | 521 kts | 86° |
| 2026-04-23 03:02 | 27.87054 | -83.51854 | 29770 ft | 517 kts | 86° |
| 2026-04-23 03:02 | 27.87212 | -83.47813 | 29199 ft | 512 kts | 86° |
| 2026-04-23 03:02 | 27.87367 | -83.43804 | 28626 ft | 507 kts | 86° |
| 2026-04-23 03:02 | 27.87519 | -83.39886 | 28070 ft | 503 kts | 86° |
| 2026-04-23 03:03 | 27.87671 | -83.35960 | 27505 ft | 498 kts | 86° |
| 2026-04-23 03:03 | 27.87822 | -83.32015 | 26939 ft | 494 kts | 86° |
| 2026-04-23 03:03 | 27.87969 | -83.28158 | 26387 ft | 489 kts | 86° |
| 2026-04-23 03:03 | 27.88095 | -83.24391 | 25989 ft | 481 kts | 88° |
| 2026-04-23 03:04 | 27.88133 | -83.20645 | 25742 ft | 471 kts | 89° |
| 2026-04-23 03:04 | 27.88123 | -83.16973 | 25482 ft | 465 kts | 90° |
| 2026-04-23 03:04 | 27.88101 | -83.13290 | 25250 ft | 473 kts | 90° |
| 2026-04-23 03:04 | 27.88083 | -83.09552 | 24988 ft | 476 kts | 89° |
| 2026-04-23 03:05 | 27.88073 | -83.05811 | 24714 ft | 472 kts | 89° |
| 2026-04-23 03:05 | 27.88071 | -83.02110 | 24451 ft | 468 kts | 89° |
| 2026-04-23 03:05 | 27.88073 | -82.98495 | 24195 ft | 465 kts | 89° |
| 2026-04-23 03:05 | 27.88075 | -82.94846 | 23940 ft | 462 kts | 89° |
| 2026-04-23 03:06 | 27.88077 | -82.91229 | 23687 ft | 460 kts | 89° |
| 2026-04-23 03:06 | 27.88077 | -82.87599 | 23436 ft | 458 kts | 89° |
| 2026-04-23 03:06 | 27.88077 | -82.84008 | 23187 ft | 456 kts | 89° |
| 2026-04-23 03:06 | 27.88075 | -82.80442 | 22939 ft | 453 kts | 90° |
| 2026-04-23 03:07 | 27.88072 | -82.76893 | 22688 ft | 451 kts | 90° |
| 2026-04-23 03:07 | 27.88068 | -82.73353 | 22441 ft | 448 kts | 89° |
| 2026-04-23 03:07 | 27.88064 | -82.69830 | 22193 ft | 446 kts | 90° |
| 2026-04-23 03:07 | 27.88056 | -82.66373 | 21951 ft | 445 kts | 90° |
| 2026-04-23 03:08 | 27.88019 | -82.62881 | 21700 ft | 443 kts | 90° |
| 2026-04-23 03:08 | 27.87963 | -82.59399 | 21461 ft | 441 kts | 91° |
| 2026-04-23 03:08 | 27.87904 | -82.55940 | 21221 ft | 440 kts | 91° |
| 2026-04-23 03:08 | 27.87846 | -82.52499 | 20976 ft | 438 kts | 91° |
| 2026-04-23 03:09 | 27.87793 | -82.49062 | 20731 ft | 436 kts | 91° |
| 2026-04-23 03:09 | 27.87741 | -82.45639 | 20483 ft | 431 kts | 91° |
| 2026-04-23 03:09 | 27.87728 | -82.42285 | 20231 ft | 421 kts | 85° |
| 2026-04-23 03:09 | 27.88351 | -82.39121 | 19916 ft | 409 kts | 65° |
| 2026-04-23 03:10 | 27.89506 | -82.36212 | 19622 ft | 401 kts | 63° |
| 2026-04-23 03:10 | 27.90678 | -82.33379 | 19290 ft | 396 kts | 63° |
| 2026-04-23 03:10 | 27.91842 | -82.30572 | 18974 ft | 392 kts | 63° |
| 2026-04-23 03:10 | 27.92971 | -82.27824 | 18669 ft | 390 kts | 63° |
| 2026-04-23 03:11 | 27.94103 | -82.25041 | 18356 ft | 388 kts | 63° |
| 2026-04-23 03:11 | 27.95217 | -82.22278 | 18046 ft | 386 kts | 64° |
| 2026-04-23 03:11 | 27.96326 | -82.19517 | 17739 ft | 383 kts | 64° |
| 2026-04-23 03:11 | 27.97426 | -82.16768 | 17431 ft | 381 kts | 64° |
| 2026-04-23 03:12 | 27.98517 | -82.14039 | 17122 ft | 379 kts | 64° |
| 2026-04-23 03:12 | 27.99600 | -82.11326 | 16820 ft | 377 kts | 64° |
| 2026-04-23 03:12 | 28.00678 | -82.08625 | 16513 ft | 375 kts | 64° |
| 2026-04-23 03:12 | 28.01750 | -82.05936 | 16210 ft | 374 kts | 64° |
| 2026-04-23 03:13 | 28.02812 | -82.03273 | 15899 ft | 368 kts | 64° |
| 2026-04-23 03:13 | 28.03845 | -82.00680 | 15614 ft | 363 kts | 64° |
| 2026-04-23 03:13 | 28.04875 | -81.98092 | 15321 ft | 357 kts | 64° |
| 2026-04-23 03:13 | 28.05896 | -81.95538 | 15023 ft | 352 kts | 64° |
| 2026-04-23 03:14 | 28.06912 | -81.93038 | 14737 ft | 347 kts | 64° |
| 2026-04-23 03:14 | 28.07917 | -81.90577 | 14461 ft | 342 kts | 64° |
| 2026-04-23 03:14 | 28.08906 | -81.88153 | 14189 ft | 337 kts | 63° |
| 2026-04-23 03:14 | 28.09961 | -81.85802 | 13918 ft | 332 kts | 61° |
| 2026-04-23 03:15 | 28.11046 | -81.83507 | 13653 ft | 328 kts | 61° |
| 2026-04-23 03:15 | 28.12113 | -81.81242 | 13391 ft | 323 kts | 61° |
| 2026-04-23 03:15 | 28.13160 | -81.79008 | 13130 ft | 319 kts | 61° |
| 2026-04-23 03:15 | 28.14194 | -81.76797 | 12873 ft | 315 kts | 61° |
| 2026-04-23 03:16 | 28.15214 | -81.74613 | 12617 ft | 312 kts | 62° |
| 2026-04-23 03:16 | 28.16222 | -81.72452 | 12369 ft | 308 kts | 62° |
| 2026-04-23 03:16 | 28.18208 | -81.68192 | 11872 ft | 302 kts | 62° |
| 2026-04-23 03:17 | 28.19174 | -81.66116 | 11633 ft | 300 kts | 62° |
| 2026-04-23 03:17 | 28.20138 | -81.64043 | 11384 ft | 294 kts | 62° |
| 2026-04-23 03:17 | 28.21087 | -81.62002 | 11150 ft | 291 kts | 62° |
| 2026-04-23 03:17 | 28.22037 | -81.59961 | 10922 ft | 293 kts | 62° |
| 2026-04-23 03:18 | 28.22995 | -81.57901 | 10688 ft | 296 kts | 62° |
| 2026-04-23 03:18 | 28.23954 | -81.55835 | 10440 ft | 294 kts | 62° |
| 2026-04-23 03:18 | 28.24896 | -81.53814 | 10190 ft | 285 kts | 61° |
| 2026-04-23 03:18 | 28.25974 | -81.51972 | 9963 ft | 277 kts | 53° |
| 2026-04-23 03:19 | 28.27134 | -81.50247 | 9755 ft | 274 kts | 52° |
| 2026-04-23 03:19 | 28.28265 | -81.48552 | 9547 ft | 273 kts | 53° |
| 2026-04-23 03:19 | 28.29400 | -81.46823 | 9341 ft | 274 kts | 53° |
| 2026-04-23 03:19 | 28.30539 | -81.45070 | 9129 ft | 276 kts | 54° |
| 2026-04-23 03:20 | 28.31766 | -81.43400 | 8885 ft | 274 kts | 39° |
| 2026-04-23 03:20 | 28.33448 | -81.42511 | 8677 ft | 264 kts | 13° |
| 2026-04-23 03:20 | 28.35246 | -81.42310 | 8468 ft | 256 kts | 1° |
| 2026-04-23 03:20 | 28.37009 | -81.42320 | 8271 ft | 250 kts | 360° |
| 2026-04-23 03:21 | 28.38744 | -81.42360 | 8042 ft | 249 kts | 359° |
| 2026-04-23 03:21 | 28.40472 | -81.42386 | 7813 ft | 248 kts | 0° |
| 2026-04-23 03:21 | 28.42199 | -81.42401 | 7586 ft | 248 kts | 0° |
| 2026-04-23 03:21 | 28.43909 | -81.42411 | 7349 ft | 248 kts | 0° |
| 2026-04-23 03:22 | 28.45637 | -81.42415 | 7112 ft | 248 kts | 0° |
| 2026-04-23 03:22 | 28.47371 | -81.42417 | 6766 ft | 249 kts | 0° |
| 2026-04-23 03:22 | 28.49080 | -81.42418 | 6546 ft | 242 kts | 1° |
| 2026-04-23 03:22 | 28.50750 | -81.42416 | 6355 ft | 237 kts | 1° |
| 2026-04-23 03:23 | 28.52393 | -81.42419 | 6257 ft | 235 kts | 0° |
| 2026-04-23 03:23 | 28.54015 | -81.42426 | 6131 ft | 230 kts | 0° |
| 2026-04-23 03:23 | 28.55603 | -81.42427 | 5973 ft | 225 kts | 1° |
| 2026-04-23 03:23 | 28.57148 | -81.42424 | 5655 ft | 224 kts | 1° |
| 2026-04-23 03:24 | 28.58713 | -81.42417 | 5320 ft | 225 kts | 2° |
| 2026-04-23 03:24 | 28.60266 | -81.42323 | 4997 ft | 223 kts | 17° |
| 2026-04-23 03:24 | 28.61505 | -81.41371 | 4617 ft | 217 kts | 60° |
| 2026-04-23 03:24 | 28.61914 | -81.39771 | 4352 ft | 210 kts | 90° |
| 2026-04-23 03:25 | 28.61694 | -81.38148 | 4035 ft | 206 kts | 111° |
| 2026-04-23 03:25 | 28.61182 | -81.36732 | 4020 ft | 188 kts | 112° |
| 2026-04-23 03:25 | 28.60705 | -81.35379 | 4002 ft | 183 kts | 111° |
| 2026-04-23 03:25 | 28.60222 | -81.34044 | 3995 ft | 183 kts | 117° |
| 2026-04-23 03:26 | 28.59306 | -81.33069 | 3947 ft | 185 kts | 160° |
| 2026-04-23 03:26 | 28.58036 | -81.32886 | 3685 ft | 185 kts | 174° |
| 2026-04-23 03:26 | 28.56754 | -81.32832 | 3309 ft | 184 kts | 175° |
| 2026-04-23 03:26 | 28.55470 | -81.32811 | 3050 ft | 187 kts | 176° |
| 2026-04-23 03:27 | 28.54167 | -81.32799 | 3021 ft | 180 kts | 176° |
| 2026-04-23 03:27 | 28.52957 | -81.32794 | 2649 ft | 173 kts | 176° |
| 2026-04-23 03:27 | 28.51740 | -81.32788 | 2126 ft | 173 kts | 177° |
| 2026-04-23 03:27 | 28.50954 | -81.32774 | 1869 ft | 168 kts | 176° |
| 2026-04-23 03:28 | 28.49782 | -81.32745 | 1312 ft | 170 kts | 178° |
| 2026-04-23 03:28 | 28.48236 | -81.32724 | 761 ft | 163 kts | 178° |
| 2026-04-23 03:28 | 28.47122 | -81.32735 | 548 ft | 155 kts | 178° |
| 2026-04-23 03:28 | 28.46065 | -81.32717 | 313 ft | 150 kts | 177° |
| 2026-04-23 03:29 | 28.45364 | -81.32702 | 213 ft | 148 kts | 178° |
| 2026-04-23 03:29 | 28.44361 | -81.32688 | 99 ft | 139 kts | 178° |
| 2026-04-23 03:29 | 28.43589 | -81.32682 | 98 ft | 80 kts | 180° |
| 2026-04-23 03:29 | 28.43214 | -81.32669 | 100 ft | 37 kts | 171° |
| 2026-04-23 03:30 | 28.43064 | -81.32397 | 97 ft | 33 kts | 91° |
| 2026-04-23 03:30 | 28.43059 | -81.32227 | 96 ft | 32 kts | 91° |
| 2026-04-23 03:30 | 28.43133 | -81.32019 | 96 ft | 29 kts | 24° |
| 2026-04-23 03:30 | 28.43330 | -81.31996 | 97 ft | 28 kts | 359° |
| 2026-04-23 03:31 | 28.43516 | -81.31999 | 97 ft | 26 kts | 358° |
| 2026-04-23 03:31 | 28.43707 | -81.32003 | 97 ft | 31 kts | 359° |
| 2026-04-23 03:31 | 28.43898 | -81.32005 | 100 ft | 19 kts | 359° |
| 2026-04-23 03:31 | 28.43943 | -81.31905 | 97 ft | 20 kts | 121° |
| 2026-04-23 03:32 | 28.43922 | -81.31745 | 102 ft | 23 kts | 89° |
| 2026-04-23 03:32 | 28.43923 | -81.31534 | 105 ft | 31 kts | 89° |
| 2026-04-23 03:32 | 28.43933 | -81.31270 | 106 ft | 33 kts | 87° |
| 2026-04-23 03:32 | 28.43942 | -81.31007 | 106 ft | 33 kts | 89° |
| 2026-04-23 03:33 | 28.43936 | -81.30745 | 108 ft | 33 kts | 95° |
| 2026-04-23 03:33 | 28.43918 | -81.30480 | 105 ft | 34 kts | 94° |
| 2026-04-23 03:33 | 28.43886 | -81.30264 | 101 ft | 20 kts | 147° |
| 2026-04-23 03:33 | 28.43729 | -81.30264 | 95 ft | 25 kts | 203° |
| 2026-04-23 03:34 | 28.43652 | -81.30341 | 94 ft | 11 kts | 233° |
| 2026-04-23 03:34 | 28.43677 | -81.30382 | 94 ft | 11 kts | 39° |
| 2026-04-23 03:34 | 28.43669 | -81.30318 | 93 ft | 0 kts | 134° |
| 2026-04-23 03:34 | 28.43667 | -81.30316 | 95 ft | 0 kts | 137° |
| 2026-04-23 03:35 | 28.43649 | -81.30302 | 94 ft | 10 kts | 156° |
| 2026-04-23 03:35 | 28.43600 | -81.30286 | 93 ft | 0 kts | 164° |